createdAt,value
2018-05-07T00:01:44.364Z,57.71
2018-05-07T00:04:16.621Z,57.70
2018-05-07T00:06:46.822Z,57.91
2018-05-07T00:09:17.650Z,57.97
2018-05-07T00:11:47.906Z,58.01
2018-05-07T00:14:19.168Z,57.91
2018-05-07T00:16:50.019Z,58.05
2018-05-07T00:19:20.739Z,58.15
2018-05-07T00:21:51.618Z,58.14
2018-05-07T00:24:22.419Z,58.19
2018-05-07T00:26:53.537Z,58.36
2018-05-07T00:29:23.399Z,58.40
2018-05-07T00:31:54.583Z,58.53
2018-05-07T00:34:25.057Z,58.43
2018-05-07T00:36:56.112Z,58.79
2018-05-07T00:39:27.111Z,58.62
2018-05-07T00:41:58.088Z,58.55
2018-05-07T00:44:29.129Z,58.62
2018-05-07T00:46:59.995Z,58.79
2018-05-07T00:49:31.022Z,58.82
2018-05-07T00:52:02.071Z,59.00
2018-05-07T00:54:33.134Z,59.08
2018-05-07T00:57:04.939Z,59.12
2018-05-07T00:59:35.698Z,59.09
2018-05-07T01:02:05.880Z,59.20
2018-05-07T01:04:36.706Z,59.33
2018-05-07T01:07:07.538Z,59.42
2018-05-07T01:09:38.451Z,59.55
2018-05-07T01:12:09.541Z,59.60
2018-05-07T01:14:40.046Z,59.54
2018-05-07T01:17:10.859Z,59.48
2018-05-07T01:19:41.623Z,59.52
2018-05-07T01:22:12.554Z,59.59
2018-05-07T01:24:43.390Z,59.62
2018-05-07T01:27:14.540Z,59.84
2018-05-07T01:29:45.354Z,59.70
2018-05-07T01:32:16.506Z,59.88
2018-05-07T01:34:47.482Z,59.94
2018-05-07T01:37:18.461Z,60.03
2018-05-07T01:39:49.444Z,60.05
2018-05-07T01:42:20.444Z,60.24
2018-05-07T01:44:51.533Z,60.30
2018-05-07T01:47:22.540Z,60.26
2018-05-07T01:49:53.442Z,60.33
2018-05-07T01:52:24.602Z,60.43
2018-05-07T01:54:55.465Z,60.64
2018-05-07T01:57:26.541Z,60.69
2018-05-07T01:59:57.450Z,60.92
2018-05-07T02:02:28.487Z,60.84
2018-05-07T02:04:59.280Z,61.01
2018-05-07T02:07:30.084Z,61.06
2018-05-07T02:10:00.855Z,61.21
2018-05-07T02:12:31.170Z,61.21
2018-05-07T02:15:02.743Z,61.03
2018-05-07T02:17:33.583Z,61.10
2018-05-07T02:20:04.538Z,61.10
2018-05-07T02:22:35.585Z,61.27
2018-05-07T02:25:06.050Z,61.35
2018-05-07T02:27:36.937Z,61.33
2018-05-07T02:30:07.714Z,61.45
2018-05-07T02:32:37.822Z,61.45
2018-05-07T02:35:08.635Z,61.50
2018-05-07T02:37:39.478Z,61.60
2018-05-07T02:40:10.603Z,61.71
2018-05-07T02:42:41.622Z,61.85
2018-05-07T02:45:12.446Z,61.93
2018-05-07T02:47:43.640Z,62.09
2018-05-07T02:50:14.440Z,62.04
2018-05-07T02:52:45.608Z,62.36
2018-05-07T02:55:16.463Z,62.50
2018-05-07T02:57:47.638Z,62.76
2018-05-07T03:00:18.083Z,62.66
2018-05-07T03:02:48.872Z,62.58
2018-05-07T03:05:19.837Z,62.66
2018-05-07T03:07:50.647Z,62.77
2018-05-07T03:10:21.476Z,62.66
2018-05-07T03:12:52.692Z,62.53
2018-05-07T03:15:23.551Z,62.47
2018-05-07T03:17:54.565Z,62.65
2018-05-07T03:20:25.409Z,62.95
2018-05-07T03:22:56.583Z,62.97
2018-05-07T03:25:27.472Z,62.92
2018-05-07T03:27:58.179Z,63.08
2018-05-07T03:30:30.049Z,63.13
2018-05-07T03:33:00.028Z,63.16
2018-05-07T03:35:30.973Z,63.23
2018-05-07T03:38:01.097Z,63.53
2018-05-07T03:40:31.809Z,63.36
2018-05-07T03:43:02.661Z,63.31
2018-05-07T03:45:33.167Z,63.26
2018-05-07T03:48:03.766Z,63.43
2018-05-07T03:50:34.572Z,63.61
2018-05-07T03:53:05.561Z,63.93
2018-05-07T03:55:37.019Z,63.92
2018-05-07T03:58:08.538Z,64.08
2018-05-07T04:00:39.205Z,64.22
2018-05-07T04:03:09.899Z,64.22
2018-05-07T04:05:40.737Z,64.71
2018-05-07T04:08:11.631Z,64.92
2018-05-07T04:10:42.452Z,64.89
2018-05-07T04:13:13.616Z,65.69
2018-05-07T04:15:44.551Z,65.85
2018-05-07T04:18:26.500Z,65.68
2018-05-07T04:21:06.955Z,65.98
2018-05-07T04:23:46.883Z,66.63
2018-05-07T04:26:16.649Z,66.46
2018-05-07T04:28:45.968Z,66.73
2018-05-07T04:31:15.530Z,66.67
2018-05-07T04:33:44.882Z,66.21
2018-05-07T04:36:13.903Z,65.89
2018-05-07T04:38:43.176Z,66.47
2018-05-07T04:41:12.186Z,66.68
2018-05-07T04:43:41.280Z,66.50
2018-05-07T04:46:10.907Z,66.92
2018-05-07T04:48:39.909Z,66.39
2018-05-07T04:51:09.227Z,66.57
2018-05-07T04:53:38.624Z,67.09
2018-05-07T04:56:07.610Z,66.87
2018-05-07T04:58:36.842Z,67.81
2018-05-07T05:01:05.933Z,67.67
2018-05-07T05:03:35.293Z,69.10
2018-05-07T05:06:04.801Z,68.69
2018-05-07T05:08:33.928Z,69.04
2018-05-07T05:11:04.800Z,69.45
2018-05-07T05:16:18.115Z,69.07
2018-05-07T05:18:47.662Z,69.61
2018-05-07T05:21:16.647Z,68.50
2018-05-07T05:23:46.656Z,67.84
2018-05-07T05:26:15.658Z,68.09
2018-05-07T05:28:44.573Z,66.27
2018-05-07T05:31:13.602Z,66.36
2018-05-07T05:33:43.956Z,67.08
2018-05-07T05:36:14.689Z,65.78
2018-05-07T05:38:45.375Z,65.62
2018-05-07T05:41:16.601Z,66.00
2018-05-07T05:43:47.724Z,66.17
2018-05-07T05:46:18.670Z,64.66
2018-05-07T05:48:49.184Z,64.88
2018-05-07T05:51:20.667Z,64.12
2018-05-07T05:53:51.297Z,64.10
2018-05-07T05:56:22.058Z,63.48
2018-05-07T05:58:53.210Z,63.47
2018-05-07T06:01:23.687Z,62.52
2018-05-07T06:03:54.487Z,62.84
2018-05-07T06:06:25.702Z,62.49
2018-05-07T06:08:56.434Z,62.02
2018-05-07T06:11:27.430Z,61.53
2018-05-07T06:13:58.397Z,61.04
2018-05-07T06:16:29.405Z,61.04
2018-05-07T06:19:00.393Z,60.72
2018-05-07T06:21:31.494Z,60.23
2018-05-07T06:24:02.387Z,59.86
2018-05-07T06:26:33.382Z,59.01
2018-05-07T06:29:04.419Z,59.38
2018-05-07T06:31:35.177Z,58.63
2018-05-07T06:34:05.891Z,58.11
2018-05-07T06:36:36.707Z,57.51
2018-05-07T06:39:07.805Z,57.44
2018-05-07T06:41:38.535Z,56.79
2018-05-07T06:44:09.393Z,56.68
2018-05-07T06:46:40.415Z,55.74
2018-05-07T06:49:11.402Z,55.51
2018-05-07T06:51:42.062Z,55.14
2018-05-07T06:54:13.756Z,54.84
2018-05-07T06:56:44.527Z,54.91
2018-05-07T06:59:14.878Z,54.71
2018-05-07T07:01:45.643Z,54.30
2018-05-07T07:04:16.302Z,53.78
2018-05-07T07:06:47.400Z,53.05
2018-05-07T07:09:18.425Z,52.74
2018-05-07T07:11:49.437Z,51.56
2018-05-07T07:14:20.374Z,51.79
2018-05-07T07:16:51.382Z,51.86
2018-05-07T07:19:21.938Z,51.54
2018-05-07T07:21:52.547Z,51.52
2018-05-07T07:24:23.343Z,50.04
2018-05-07T07:26:54.462Z,48.88
2018-05-07T07:29:24.280Z,48.72
2018-05-07T07:31:55.320Z,48.57
2018-05-07T07:34:26.047Z,48.46
2018-05-07T07:36:57.017Z,48.07
2018-05-07T07:39:27.980Z,46.86
2018-05-07T07:41:59.198Z,46.35
2018-05-07T07:44:30.151Z,46.41
2018-05-07T07:47:00.978Z,45.87
2018-05-07T07:49:31.917Z,44.29
2018-05-07T07:52:02.955Z,45.23
2018-05-07T07:54:33.937Z,43.70
2018-05-07T07:57:05.024Z,42.79
2018-05-07T07:59:35.935Z,43.08
2018-05-07T08:02:07.011Z,42.43
2018-05-07T08:04:37.913Z,42.29
2018-05-07T08:07:08.942Z,41.70
2018-05-07T08:09:39.917Z,40.86
2018-05-07T08:12:10.984Z,40.59
2018-05-07T08:14:41.967Z,38.59
2018-05-07T08:17:12.995Z,38.33
2018-05-07T08:19:44.005Z,38.53
2018-05-07T08:22:14.962Z,37.92
2018-05-07T08:24:46.017Z,38.40
2018-05-07T08:27:17.734Z,37.61
2018-05-07T08:29:48.410Z,36.77
2018-05-07T08:32:19.454Z,35.27
2018-05-07T08:34:50.155Z,36.11
2018-05-07T08:37:21.705Z,36.36
2018-05-07T08:39:52.411Z,36.32
2018-05-07T08:42:23.424Z,36.01
2018-05-07T08:44:54.392Z,36.02
2018-05-07T08:47:25.408Z,35.91
2018-05-07T08:49:56.354Z,35.07
2018-05-07T08:52:27.350Z,35.87
2018-05-07T08:54:58.420Z,36.51
2018-05-07T08:57:29.493Z,35.75
2018-05-07T09:00:00.364Z,35.16
2018-05-07T09:02:31.015Z,35.57
2018-05-07T09:05:01.692Z,36.16
2018-05-07T09:07:32.532Z,35.47
2018-05-07T09:10:03.456Z,35.88
2018-05-07T09:12:34.399Z,35.97
2018-05-07T09:15:05.343Z,35.67
2018-05-07T09:17:36.768Z,34.66
2018-05-07T09:20:07.537Z,33.42
2018-05-07T09:22:38.465Z,33.94
2018-05-07T09:25:09.391Z,33.83
2018-05-07T09:27:40.358Z,34.01
2018-05-07T09:30:11.332Z,33.93
2018-05-07T09:32:42.422Z,33.28
2018-05-07T09:35:13.376Z,33.26
2018-05-07T09:37:44.427Z,31.60
2018-05-07T09:40:15.281Z,31.18
2018-05-07T09:42:46.438Z,31.58
2018-05-07T09:45:17.447Z,32.14
2018-05-07T09:47:47.950Z,31.73
2018-05-07T09:50:18.675Z,31.18
2018-05-07T09:52:49.433Z,29.65
2018-05-07T09:55:20.337Z,29.24
2018-05-07T09:58:01.771Z,29.66
2018-05-07T10:00:36.173Z,29.82
2018-05-07T10:03:05.662Z,30.78
2018-05-07T10:05:34.840Z,30.15
2018-05-07T10:08:03.811Z,29.44
2018-05-07T10:10:32.865Z,29.33
2018-05-07T10:13:01.819Z,29.85
2018-05-07T10:15:30.776Z,29.95
2018-05-07T10:18:00.135Z,30.02
2018-05-07T10:20:29.114Z,29.64
2018-05-07T10:22:58.835Z,30.21
2018-05-07T10:25:29.504Z,29.65
2018-05-07T10:27:59.877Z,29.20
2018-05-07T10:30:30.588Z,28.77
2018-05-07T10:33:01.473Z,28.86
2018-05-07T10:35:32.433Z,28.66
2018-05-07T10:38:03.361Z,27.89
2018-05-07T10:40:34.330Z,28.64
2018-05-07T10:43:05.397Z,28.10
2018-05-07T10:45:36.331Z,27.08
2018-05-07T10:48:06.913Z,27.58
2018-05-07T10:50:37.667Z,27.36
2018-05-07T10:53:08.466Z,27.44
2018-05-07T10:55:39.547Z,27.67
2018-05-07T10:58:10.722Z,27.91
2018-05-07T11:00:41.438Z,27.60
2018-05-07T11:03:12.384Z,25.94
2018-05-07T11:05:43.375Z,26.08
2018-05-07T11:08:14.279Z,26.06
2018-05-07T11:10:44.937Z,24.92
2018-05-07T11:13:15.624Z,25.11
2018-05-07T11:15:45.712Z,24.88
2018-05-07T11:18:16.436Z,24.95
2018-05-07T11:20:47.765Z,25.12
2018-05-07T11:23:18.452Z,24.98
2018-05-07T11:25:49.443Z,25.41
2018-05-07T11:28:20.351Z,24.29
2018-05-07T11:30:51.344Z,24.30
2018-05-07T11:33:21.888Z,23.99
2018-05-07T11:35:52.644Z,23.94
2018-05-07T11:38:23.343Z,23.74
2018-05-07T11:40:54.399Z,23.48
2018-05-07T11:43:24.927Z,22.83
2018-05-07T11:45:55.618Z,22.44
2018-05-07T11:48:26.334Z,23.72
2018-05-07T11:50:57.445Z,23.19
2018-05-07T11:53:28.300Z,23.06
2018-05-07T11:55:59.670Z,22.73
2018-05-07T11:58:30.388Z,22.81
2018-05-07T12:01:01.452Z,22.73
2018-05-07T12:03:32.319Z,22.33
2018-05-07T12:06:03.429Z,22.49
2018-05-07T12:08:34.288Z,22.54
2018-05-07T12:11:05.418Z,23.05
2018-05-07T12:13:36.380Z,22.75
2018-05-07T12:16:07.411Z,22.52
2018-05-07T12:18:38.357Z,22.44
2018-05-07T12:21:09.194Z,22.84
2018-05-07T12:23:39.975Z,23.34
2018-05-07T12:26:10.686Z,23.60
2018-05-07T12:28:41.401Z,23.36
2018-05-07T12:31:13.041Z,21.38
2018-05-07T12:33:43.815Z,20.96
2018-05-07T12:36:14.476Z,21.37
2018-05-07T12:38:45.267Z,21.64
2018-05-07T12:41:16.639Z,21.89
2018-05-07T12:43:47.228Z,22.08
2018-05-07T12:46:18.509Z,21.88
2018-05-07T12:48:49.289Z,21.49
2018-05-07T12:51:20.352Z,21.37
2018-05-07T12:53:51.358Z,21.62
2018-05-07T12:56:22.541Z,21.74
2018-05-07T12:58:53.313Z,21.74
2018-05-07T13:01:24.557Z,21.11
2018-05-07T13:03:55.291Z,21.55
2018-05-07T13:06:26.441Z,21.60
2018-05-07T13:08:57.306Z,21.82
2018-05-07T13:11:28.509Z,21.39
2018-05-07T13:13:59.381Z,21.54
2018-05-07T13:16:30.390Z,21.50
2018-05-07T13:19:00.924Z,21.37
2018-05-07T13:21:31.661Z,21.44
2018-05-07T13:24:02.344Z,22.19
2018-05-07T13:26:33.437Z,20.67
2018-05-07T13:29:04.367Z,20.52
2018-05-07T13:31:35.114Z,20.89
2018-05-07T13:34:05.779Z,21.38
2018-05-07T13:36:36.540Z,21.82
2018-05-07T13:39:07.163Z,22.48
2018-05-07T13:41:38.738Z,22.07
2018-05-07T13:44:09.429Z,21.79
2018-05-07T13:46:40.574Z,22.31
2018-05-07T13:49:11.335Z,22.00
2018-05-07T13:51:42.424Z,21.44
2018-05-07T13:54:13.031Z,21.69
2018-05-07T13:56:44.782Z,21.73
2018-05-07T13:59:15.495Z,22.29
2018-05-07T14:01:46.633Z,22.12
2018-05-07T14:04:17.287Z,22.03
2018-05-07T14:06:48.761Z,21.79
2018-05-07T14:09:19.444Z,21.66
2018-05-07T14:11:50.383Z,21.81
2018-05-07T14:14:20.962Z,21.36
2018-05-07T14:16:51.553Z,21.69
2018-05-07T14:19:22.342Z,21.57
2018-05-07T14:21:53.350Z,21.69
2018-05-07T14:24:24.397Z,21.65
2018-05-07T14:26:55.412Z,21.49
2018-05-07T14:29:26.279Z,21.78
2018-05-07T14:31:58.999Z,22.54
2018-05-07T14:34:28.808Z,22.48
2018-05-07T14:36:59.505Z,22.49
2018-05-07T14:39:30.010Z,22.54
2018-05-07T14:42:00.699Z,22.50
2018-05-07T14:44:30.634Z,22.59
2018-05-07T14:47:01.435Z,22.81
2018-05-07T14:49:32.284Z,22.60
2018-05-07T14:52:03.431Z,22.83
2018-05-07T14:54:34.292Z,22.09
2018-05-07T14:57:04.960Z,22.13
2018-05-07T14:59:36.768Z,22.03
2018-05-07T15:02:07.075Z,22.71
2018-05-07T15:04:37.855Z,22.77
2018-05-07T15:07:08.570Z,22.55
2018-05-07T15:09:39.287Z,21.98
2018-05-07T15:12:10.474Z,22.08
2018-05-07T15:14:41.342Z,21.90
2018-05-07T15:17:12.500Z,21.80
2018-05-07T15:19:43.535Z,21.84
2018-05-07T15:22:14.422Z,21.45
2018-05-07T15:24:49.068Z,21.71
2018-05-07T15:27:18.100Z,21.85
2018-05-07T15:29:47.367Z,22.80
2018-05-07T15:32:18.075Z,23.29
2018-05-07T15:34:48.720Z,23.17
2018-05-07T15:37:18.724Z,22.48
2018-05-07T15:39:49.386Z,22.78
2018-05-07T15:42:20.394Z,23.17
2018-05-07T15:44:51.369Z,23.06
2018-05-07T15:47:22.385Z,22.76
2018-05-07T15:49:53.382Z,23.10
2018-05-07T15:52:24.088Z,22.98
2018-05-07T15:54:55.048Z,22.70
2018-05-07T15:57:25.869Z,22.95
2018-05-07T15:59:56.530Z,23.82
2018-05-07T16:02:27.525Z,23.96
2018-05-07T16:04:57.978Z,24.45
2018-05-07T16:07:28.793Z,24.21
2018-05-07T16:09:59.462Z,23.94
2018-05-07T16:12:30.391Z,24.02
2018-05-07T16:15:01.518Z,24.16
2018-05-07T16:17:31.696Z,23.82
2018-05-07T16:20:02.436Z,24.06
2018-05-07T16:22:34.092Z,24.19
2018-05-07T16:25:03.951Z,24.82
2018-05-07T16:27:35.683Z,24.69
2018-05-07T16:30:05.955Z,24.86
2018-05-07T16:32:41.130Z,25.00
2018-05-07T16:35:10.108Z,24.88
2018-05-07T16:37:40.093Z,25.14
2018-05-07T16:40:10.916Z,25.30
2018-05-07T16:42:41.526Z,25.55
2018-05-07T16:45:12.630Z,25.49
2018-05-07T16:47:43.463Z,25.76
2018-05-07T16:50:13.898Z,26.09
2018-05-07T16:52:44.481Z,26.42
2018-05-07T16:55:15.420Z,27.01
2018-05-07T16:57:46.512Z,26.79
2018-05-07T17:00:17.392Z,26.90
2018-05-07T17:02:48.338Z,27.05
2018-05-07T17:05:19.375Z,27.51
2018-05-07T17:07:50.370Z,27.64
2018-05-07T17:10:21.359Z,27.86
2018-05-07T17:12:52.482Z,27.98
2018-05-07T17:15:23.317Z,28.19
2018-05-07T17:17:54.467Z,28.24
2018-05-07T17:20:25.352Z,28.46
2018-05-07T17:22:56.422Z,28.49
2018-05-07T17:25:27.368Z,28.59
2018-05-07T17:27:58.369Z,29.08
2018-05-07T17:30:29.374Z,29.24
2018-05-07T17:33:00.422Z,29.38
2018-05-07T17:35:31.562Z,29.57
2018-05-07T17:38:02.332Z,29.70
2018-05-07T17:40:32.953Z,29.78
2018-05-07T17:43:03.632Z,29.78
2018-05-07T17:45:45.346Z,29.98
2018-05-07T17:48:25.260Z,30.15
2018-05-07T17:50:54.264Z,30.38
2018-05-07T17:53:23.811Z,30.48
2018-05-07T17:55:52.791Z,30.62
2018-05-07T17:58:22.026Z,30.74
2018-05-07T18:00:52.271Z,30.91
2018-05-07T18:03:22.206Z,31.07
2018-05-07T18:05:51.942Z,31.25
2018-05-07T18:08:21.387Z,31.37
2018-05-07T18:10:50.586Z,31.83
2018-05-07T18:13:19.846Z,32.12
2018-05-07T18:15:48.815Z,32.26
2018-05-07T18:18:17.927Z,32.47
2018-05-07T18:20:48.026Z,32.49
2018-05-07T18:23:18.815Z,32.95
2018-05-07T18:25:49.268Z,33.01
2018-05-07T18:28:20.264Z,33.06
2018-05-07T18:30:51.451Z,33.20
2018-05-07T18:33:22.318Z,33.29
2018-05-07T18:35:53.445Z,33.33
2018-05-07T18:38:24.283Z,33.51
2018-05-07T18:40:56.124Z,33.67
2018-05-07T18:43:26.821Z,33.74
2018-05-07T18:45:57.642Z,33.71
2018-05-07T18:48:28.359Z,33.88
2018-05-07T18:50:59.648Z,33.87
2018-05-07T18:53:30.412Z,34.02
2018-05-07T18:56:01.811Z,33.98
2018-05-07T18:58:32.735Z,34.06
2018-05-07T19:01:03.592Z,34.02
2018-05-07T19:03:34.443Z,34.07
2018-05-07T19:06:05.455Z,34.22
2018-05-07T19:08:34.970Z,34.43
2018-05-07T19:11:06.169Z,34.44
2018-05-07T19:13:37.050Z,34.48
2018-05-07T19:16:08.349Z,34.53
2018-05-07T19:18:39.500Z,34.54
2018-05-07T19:21:10.457Z,34.71
2018-05-07T19:23:41.516Z,34.71
2018-05-07T19:26:12.374Z,34.74
2018-05-07T19:28:43.800Z,34.75
2018-05-07T19:31:14.436Z,34.85
2018-05-07T19:33:45.128Z,34.88
2018-05-07T19:36:15.762Z,35.00
2018-05-07T19:38:46.609Z,35.01
2018-05-07T19:41:16.742Z,35.03
2018-05-07T19:43:47.816Z,35.29
2018-05-07T19:46:18.582Z,35.47
2018-05-07T19:48:49.880Z,35.51
2018-05-07T19:51:20.586Z,35.78
2018-05-07T19:53:51.514Z,35.89
2018-05-07T19:56:22.388Z,36.16
2018-05-07T19:58:53.428Z,36.31
2018-05-07T20:01:24.436Z,36.46
2018-05-07T20:03:55.447Z,36.61
2018-05-07T20:06:25.936Z,36.67
2018-05-07T20:08:56.697Z,36.76
2018-05-07T20:11:27.371Z,36.87
2018-05-07T20:13:58.443Z,36.96
2018-05-07T20:16:29.351Z,37.10
2018-05-07T20:19:00.471Z,37.23
2018-05-07T20:21:31.394Z,37.45
2018-05-07T20:24:01.969Z,37.61
2018-05-07T20:26:32.625Z,37.77
2018-05-07T20:29:03.523Z,38.01
2018-05-07T20:31:34.654Z,38.18
2018-05-07T20:34:04.767Z,38.41
2018-05-07T20:36:35.495Z,38.55
2018-05-07T20:39:07.028Z,38.78
2018-05-07T20:41:38.330Z,39.26
2018-05-07T20:44:08.965Z,39.66
2018-05-07T20:46:39.798Z,39.92
2018-05-07T20:49:10.531Z,40.11
2018-05-07T20:51:41.434Z,40.37
2018-05-07T20:54:12.012Z,40.75
2018-05-07T20:56:42.806Z,41.15
2018-05-07T20:59:13.493Z,41.52
2018-05-07T21:01:44.382Z,41.84
2018-05-07T21:04:15.364Z,42.10
2018-05-07T21:06:46.632Z,42.37
2018-05-07T21:09:17.382Z,42.53
2018-05-07T21:11:48.446Z,42.92
2018-05-07T21:14:19.137Z,43.04
2018-05-07T21:16:49.735Z,43.22
2018-05-07T21:19:20.526Z,43.33
2018-05-07T21:21:51.526Z,43.38
2018-05-07T21:24:22.406Z,43.40
2018-05-07T21:26:53.390Z,43.59
2018-05-07T21:29:24.498Z,43.61
2018-05-07T21:31:56.424Z,43.66
2018-05-07T21:34:26.953Z,44.02
2018-05-07T21:36:57.682Z,44.33
2018-05-07T21:39:28.418Z,44.45
2018-05-07T21:41:59.481Z,44.60
2018-05-07T21:44:30.338Z,44.72
2018-05-07T21:47:01.372Z,44.73
2018-05-07T21:49:32.410Z,44.75
2018-05-07T21:52:03.448Z,44.88
2018-05-07T21:54:34.430Z,45.13
2018-05-07T21:57:05.486Z,45.27
2018-05-07T21:59:36.394Z,45.33
2018-05-07T22:02:07.081Z,45.73
2018-05-07T22:04:37.762Z,46.16
2018-05-07T22:07:08.394Z,46.35
2018-05-07T22:09:39.361Z,46.49
2018-05-07T22:12:10.452Z,46.76
2018-05-07T22:14:41.447Z,46.83
2018-05-07T22:17:12.421Z,47.07
2018-05-07T22:19:43.434Z,47.13
2018-05-07T22:22:14.472Z,47.46
2018-05-07T22:24:45.097Z,47.53
2018-05-07T22:27:16.698Z,47.85
2018-05-07T22:29:47.450Z,48.07
2018-05-07T22:32:18.397Z,48.15
2018-05-07T22:34:49.359Z,48.18
2018-05-07T22:37:20.463Z,48.33
2018-05-07T22:39:51.350Z,48.44
2018-05-07T22:42:22.502Z,48.80
2018-05-07T22:44:53.351Z,48.86
2018-05-07T22:47:24.408Z,49.03
2018-05-07T22:49:55.334Z,49.56
2018-05-07T22:52:26.445Z,49.58
2018-05-07T22:55:05.317Z,49.47
2018-05-07T22:57:34.435Z,49.71
2018-05-07T23:00:03.398Z,49.76
2018-05-07T23:02:32.501Z,49.83
2018-05-07T23:05:01.754Z,49.97
2018-05-07T23:07:31.706Z,50.18
2018-05-07T23:10:02.521Z,50.27
2018-05-07T23:12:33.191Z,50.42
2018-05-07T23:15:03.703Z,50.46
2018-05-07T23:17:34.395Z,50.80
2018-05-07T23:20:05.112Z,50.95
2018-05-07T23:22:36.634Z,51.15
2018-05-07T23:25:07.429Z,51.16
2018-05-07T23:27:38.326Z,51.10
2018-05-07T23:30:09.367Z,51.43
2018-05-07T23:32:43.335Z,51.50
2018-05-07T23:35:12.386Z,51.68
2018-05-07T23:37:42.990Z,51.86
2018-05-07T23:40:13.754Z,51.87
2018-05-07T23:42:44.433Z,52.00
2018-05-07T23:45:15.084Z,52.28
2018-05-07T23:47:46.664Z,52.38
2018-05-07T23:50:17.456Z,52.83
2018-05-07T23:52:48.722Z,52.75
2018-05-07T23:55:18.754Z,53.03
2018-05-07T23:57:49.465Z,53.03
